createdAt,value
2022-12-06T00:00:15.305Z,50.68
2022-12-06T00:03:04.001Z,50.97
2022-12-06T00:05:52.720Z,50.81
2022-12-06T00:08:41.654Z,50.51
2022-12-06T00:11:32.352Z,50.67
2022-12-06T00:14:22.791Z,50.60
2022-12-06T00:17:11.369Z,50.52
2022-12-06T00:20:00.192Z,51.02
2022-12-06T00:22:49.260Z,50.67
2022-12-06T00:25:37.912Z,50.61
2022-12-06T00:28:26.852Z,51.02
2022-12-06T00:31:18.332Z,51.06
2022-12-06T00:34:07.464Z,50.56
2022-12-06T00:36:56.121Z,50.67
2022-12-06T00:39:44.813Z,50.81
2022-12-06T00:42:33.661Z,51.00
2022-12-06T00:45:22.353Z,50.96
2022-12-06T00:48:12.347Z,51.07
2022-12-06T00:51:00.991Z,50.71
2022-12-06T00:53:49.999Z,50.67
2022-12-06T00:56:39.014Z,50.56
2022-12-06T00:59:28.426Z,50.65
2022-12-06T01:02:17.131Z,51.12
2022-12-06T01:05:07.757Z,50.68
2022-12-06T01:07:56.617Z,50.94
2022-12-06T01:10:53.314Z,51.25
2022-12-06T01:13:41.938Z,50.93
2022-12-06T01:16:32.261Z,51.27
2022-12-06T01:19:20.943Z,50.77
2022-12-06T01:22:10.889Z,50.70
2022-12-06T01:24:59.798Z,51.08
2022-12-06T01:27:48.357Z,50.66
2022-12-06T01:30:37.030Z,50.77
2022-12-06T01:33:26.461Z,51.00
2022-12-06T01:36:19.390Z,51.24
2022-12-06T01:39:10.847Z,50.91
2022-12-06T01:41:59.726Z,51.08
2022-12-06T01:44:49.585Z,50.83
2022-12-06T01:47:41.269Z,51.35
2022-12-06T01:50:33.004Z,51.34
2022-12-06T01:53:25.661Z,50.80
2022-12-06T01:56:16.289Z,51.03
2022-12-06T01:59:06.377Z,51.08
2022-12-06T02:01:55.473Z,50.90
2022-12-06T02:04:45.004Z,50.85
2022-12-06T02:07:34.388Z,51.11
2022-12-06T02:10:23.770Z,50.77
2022-12-06T02:13:14.059Z,51.25
2022-12-06T02:16:10.434Z,51.28
2022-12-06T02:19:02.733Z,50.77
2022-12-06T02:21:58.470Z,51.17
2022-12-06T02:25:00.291Z,51.13
2022-12-06T02:27:59.697Z,51.32
2022-12-06T02:30:53.019Z,50.81
2022-12-06T02:33:47.652Z,51.01
2022-12-06T02:36:42.183Z,51.04
2022-12-06T02:39:35.684Z,50.95
2022-12-06T02:42:25.812Z,51.12
2022-12-06T02:45:17.599Z,50.88
2022-12-06T02:48:10.600Z,51.20
2022-12-06T02:51:01.511Z,50.90
2022-12-06T02:53:53.225Z,51.31
2022-12-06T02:56:41.841Z,51.11
2022-12-06T02:59:30.678Z,51.04
2022-12-06T03:02:19.416Z,50.74
2022-12-06T03:05:16.046Z,51.26
2022-12-06T03:08:11.601Z,50.77
2022-12-06T03:11:02.537Z,50.92
2022-12-06T03:13:56.819Z,51.00
2022-12-06T03:16:50.049Z,50.93
2022-12-06T03:19:38.878Z,50.84
2022-12-06T03:22:39.625Z,51.17
2022-12-06T03:25:29.075Z,51.35
2022-12-06T03:28:18.995Z,51.43
2022-12-06T03:31:11.191Z,51.36
2022-12-06T03:34:02.155Z,51.19
2022-12-06T03:36:52.099Z,51.09
2022-12-06T03:39:45.280Z,50.88
2022-12-06T03:42:34.442Z,51.00
2022-12-06T03:45:24.271Z,51.14
2022-12-06T03:48:14.782Z,50.92
2022-12-06T03:51:06.072Z,51.16
2022-12-06T03:53:56.098Z,51.08
2022-12-06T03:56:46.219Z,50.75
2022-12-06T03:59:34.887Z,51.11
2022-12-06T04:02:23.584Z,51.28
2022-12-06T04:05:12.693Z,51.19
2022-12-06T04:08:01.343Z,50.94
2022-12-06T04:10:50.017Z,51.17
2022-12-06T04:13:40.863Z,50.84
2022-12-06T04:16:47.042Z,51.36
2022-12-06T04:19:35.829Z,50.95
2022-12-06T04:22:42.301Z,51.22
2022-12-06T04:25:31.065Z,51.25
2022-12-06T04:28:37.549Z,51.03
2022-12-06T04:31:45.618Z,51.09
2022-12-06T04:34:51.914Z,51.16
2022-12-06T04:37:58.072Z,51.14
2022-12-06T04:40:49.200Z,50.93
2022-12-06T04:43:42.728Z,50.92
2022-12-06T04:46:33.159Z,51.21
2022-12-06T04:49:21.854Z,51.26
2022-12-06T04:52:11.229Z,51.16
2022-12-06T04:54:59.797Z,51.26
2022-12-06T04:57:48.512Z,51.08
2022-12-06T05:00:37.251Z,51.30
2022-12-06T05:03:27.406Z,51.26
2022-12-06T05:06:16.117Z,51.40
2022-12-06T05:09:05.041Z,51.31
2022-12-06T05:11:53.672Z,50.69
2022-12-06T05:14:42.470Z,50.99
2022-12-06T05:17:31.057Z,49.75
2022-12-06T05:20:21.241Z,39.99
2022-12-06T05:23:09.933Z,37.38
2022-12-06T05:26:01.803Z,35.46
2022-12-06T05:28:50.816Z,34.79
2022-12-06T05:31:39.455Z,35.27
2022-12-06T05:34:28.402Z,37.90
2022-12-06T05:37:18.526Z,39.91
2022-12-06T05:40:08.464Z,41.04
2022-12-06T05:42:57.111Z,41.91
2022-12-06T05:45:46.066Z,42.87
2022-12-06T05:48:35.001Z,43.35
2022-12-06T05:51:23.642Z,43.87
2022-12-06T05:54:14.355Z,44.26
2022-12-06T05:57:03.097Z,44.71
2022-12-06T05:59:51.756Z,44.60
2022-12-06T06:02:40.436Z,45.06
2022-12-06T06:05:29.090Z,45.31
2022-12-06T06:08:18.143Z,45.36
2022-12-06T06:11:08.362Z,45.71
2022-12-06T06:13:57.093Z,45.79
2022-12-06T06:16:45.836Z,46.39
2022-12-06T06:19:34.736Z,46.33
2022-12-06T06:22:24.495Z,46.51
2022-12-06T06:25:13.318Z,46.54
2022-12-06T06:28:03.312Z,46.86
2022-12-06T06:30:52.358Z,46.82
2022-12-06T06:33:41.101Z,46.74
2022-12-06T06:36:29.720Z,46.89
2022-12-06T06:39:18.401Z,47.17
2022-12-06T06:42:07.542Z,46.88
2022-12-06T06:44:57.550Z,47.14
2022-12-06T06:47:46.617Z,47.51
2022-12-06T06:50:35.489Z,47.79
2022-12-06T06:53:25.157Z,47.71
2022-12-06T06:56:13.835Z,47.62
2022-12-06T06:59:02.661Z,48.16
2022-12-06T07:01:52.960Z,48.34
2022-12-06T07:04:42.339Z,47.90
2022-12-06T07:07:31.584Z,48.07
2022-12-06T07:10:20.456Z,47.99
2022-12-06T07:13:09.107Z,47.98
2022-12-06T07:15:58.368Z,48.06
2022-12-06T07:18:48.634Z,48.11
2022-12-06T07:21:37.483Z,48.36
2022-12-06T07:24:26.208Z,48.40
2022-12-06T07:27:15.008Z,48.14
2022-12-06T07:30:03.890Z,48.34
2022-12-06T07:32:52.814Z,48.12
2022-12-06T07:36:10.753Z,48.47
2022-12-06T07:38:53.550Z,48.63
2022-12-06T07:41:59.913Z,48.43
2022-12-06T07:45:05.540Z,48.77
2022-12-06T07:47:54.270Z,48.42
2022-12-06T07:50:44.326Z,48.69
2022-12-06T07:53:33.027Z,48.67
2022-12-06T07:56:21.649Z,48.61
2022-12-06T07:59:10.597Z,48.67
2022-12-06T08:01:59.304Z,48.33
2022-12-06T08:04:48.568Z,48.48
2022-12-06T08:07:38.849Z,48.53
2022-12-06T08:10:27.673Z,48.69
2022-12-06T08:13:16.400Z,48.50
2022-12-06T08:16:07.393Z,48.88
2022-12-06T08:18:57.794Z,48.73
2022-12-06T08:21:46.693Z,48.88
2022-12-06T08:24:36.714Z,48.64
2022-12-06T08:27:25.407Z,49.06
2022-12-06T08:30:14.357Z,49.19
2022-12-06T08:33:03.097Z,48.76
2022-12-06T08:35:52.043Z,48.81
2022-12-06T08:38:41.083Z,49.05
2022-12-06T08:41:48.832Z,49.12
2022-12-06T08:44:37.521Z,49.10
2022-12-06T08:47:26.125Z,48.68
2022-12-06T08:50:14.730Z,49.13
2022-12-06T08:53:03.374Z,49.00
2022-12-06T08:56:02.252Z,48.99
2022-12-06T08:58:54.303Z,48.92
2022-12-06T09:01:43.131Z,48.86
2022-12-06T09:04:32.084Z,48.89
2022-12-06T09:07:23.011Z,49.21
2022-12-06T09:10:12.530Z,48.93
2022-12-06T09:13:01.223Z,48.98
2022-12-06T09:15:51.325Z,48.83
2022-12-06T09:18:40.182Z,49.06
2022-12-06T09:21:30.572Z,48.96
2022-12-06T09:24:22.124Z,49.07
2022-12-06T09:27:10.873Z,49.30
2022-12-06T09:30:00.386Z,49.03
2022-12-06T09:32:50.731Z,48.96
2022-12-06T09:35:39.514Z,49.10
2022-12-06T09:38:29.936Z,49.26
2022-12-06T09:41:38.693Z,49.23
2022-12-06T09:44:43.529Z,48.79
2022-12-06T09:47:39.996Z,48.48
2022-12-06T09:50:39.482Z,49.30
2022-12-06T09:53:35.459Z,48.75
2022-12-06T09:56:27.453Z,49.38
2022-12-06T09:59:21.788Z,49.30
2022-12-06T10:02:25.422Z,49.38
2022-12-06T10:05:26.921Z,49.33
2022-12-06T10:08:26.536Z,49.35
2022-12-06T10:11:21.155Z,49.65
2022-12-06T10:14:17.943Z,49.66
2022-12-06T10:17:12.545Z,49.63
2022-12-06T10:20:07.470Z,49.50
2022-12-06T10:23:02.823Z,49.64
2022-12-06T10:25:57.712Z,49.74
2022-12-06T10:28:48.253Z,49.88
2022-12-06T10:31:45.076Z,49.93
2022-12-06T10:34:49.042Z,49.89
2022-12-06T10:37:44.124Z,49.53
2022-12-06T10:40:38.913Z,49.65
2022-12-06T10:43:35.472Z,49.87
2022-12-06T10:46:45.914Z,50.02
2022-12-06T10:49:43.882Z,49.71
2022-12-06T10:52:38.393Z,49.69
2022-12-06T10:55:31.370Z,49.80
2022-12-06T10:58:28.892Z,49.91
2022-12-06T11:01:21.467Z,49.81
2022-12-06T11:04:14.087Z,49.94
2022-12-06T11:07:07.544Z,49.61
2022-12-06T11:09:58.081Z,49.73
2022-12-06T11:12:47.559Z,49.63
2022-12-06T11:15:37.959Z,49.86
2022-12-06T11:18:29.668Z,49.85
2022-12-06T11:21:26.431Z,49.75
2022-12-06T11:24:18.246Z,49.76
2022-12-06T11:27:12.727Z,49.97
2022-12-06T11:30:01.951Z,49.83
2022-12-06T11:32:52.342Z,49.91
2022-12-06T11:35:42.712Z,49.75
2022-12-06T11:38:33.507Z,49.83
2022-12-06T11:41:24.527Z,49.73
2022-12-06T11:44:15.898Z,49.75
2022-12-06T11:47:04.952Z,49.60
2022-12-06T11:49:56.152Z,49.87
2022-12-06T11:52:51.432Z,50.15
2022-12-06T11:55:43.266Z,49.67
2022-12-06T11:58:36.172Z,49.77
2022-12-06T12:01:39.528Z,49.74
2022-12-06T12:04:37.590Z,49.77
2022-12-06T12:07:26.906Z,49.50
2022-12-06T12:10:29.822Z,49.83
2022-12-06T12:13:41.557Z,49.39
2022-12-06T12:16:31.774Z,49.57
2022-12-06T12:19:33.219Z,49.42
2022-12-06T12:22:27.065Z,49.53
2022-12-06T12:25:28.631Z,49.92
2022-12-06T12:28:26.458Z,49.55
2022-12-06T12:31:20.288Z,49.61
2022-12-06T12:34:16.192Z,49.63
2022-12-06T12:37:06.468Z,49.65
2022-12-06T12:39:55.811Z,49.63
2022-12-06T12:42:47.943Z,49.43
2022-12-06T12:45:36.655Z,49.65
2022-12-06T12:48:26.665Z,49.83
2022-12-06T12:51:24.753Z,49.77
2022-12-06T12:54:22.399Z,49.69
2022-12-06T12:57:15.059Z,49.92
2022-12-06T13:00:05.996Z,49.91
2022-12-06T13:02:57.367Z,49.57
2022-12-06T13:05:47.718Z,50.05
2022-12-06T13:08:38.031Z,49.80
2022-12-06T13:11:26.875Z,49.85
2022-12-06T13:14:19.492Z,49.79
2022-12-06T13:17:12.314Z,50.01
2022-12-06T13:20:02.217Z,49.81
2022-12-06T13:22:53.007Z,50.17
2022-12-06T13:25:41.903Z,49.94
2022-12-06T13:28:33.606Z,49.83
2022-12-06T13:31:24.579Z,49.67
2022-12-06T13:34:22.616Z,49.70
2022-12-06T13:37:30.882Z,49.62
2022-12-06T13:40:54.369Z,49.59
2022-12-06T13:43:51.986Z,49.97
2022-12-06T13:46:40.655Z,49.98
2022-12-06T13:49:48.795Z,49.93
2022-12-06T13:53:02.340Z,49.89
2022-12-06T13:56:02.176Z,49.92
2022-12-06T13:58:53.990Z,49.72
2022-12-06T14:01:44.301Z,49.83
2022-12-06T14:04:38.857Z,49.75
2022-12-06T14:07:34.376Z,49.56
2022-12-06T14:10:23.307Z,49.86
2022-12-06T14:13:17.727Z,49.84
2022-12-06T14:16:07.887Z,49.56
2022-12-06T14:18:56.737Z,50.08
2022-12-06T14:21:53.910Z,49.75
2022-12-06T14:24:44.277Z,49.67
2022-12-06T14:27:34.310Z,49.77
2022-12-06T14:30:26.143Z,50.10
2022-12-06T14:33:20.601Z,49.97
2022-12-06T14:36:18.102Z,49.94
2022-12-06T14:39:13.459Z,50.03
2022-12-06T14:42:21.372Z,49.63
2022-12-06T14:45:15.575Z,48.91
2022-12-06T14:48:05.299Z,39.98
2022-12-06T14:50:54.105Z,38.20
2022-12-06T14:53:43.971Z,40.83
2022-12-06T14:56:37.819Z,42.45
2022-12-06T15:02:35.954Z,43.47
2022-12-06T15:05:33.769Z,43.88
2022-12-06T15:08:34.030Z,43.82
2022-12-06T15:11:49.586Z,44.35
2022-12-06T15:14:50.560Z,43.86
2022-12-06T15:17:39.327Z,43.22
2022-12-06T15:20:28.125Z,42.71
2022-12-06T15:23:38.360Z,42.49
2022-12-06T15:26:27.036Z,42.80
2022-12-06T15:29:15.783Z,41.96
2022-12-06T15:32:05.757Z,42.53
2022-12-06T15:34:54.395Z,42.01
2022-12-06T15:37:48.772Z,41.87
2022-12-06T15:40:39.402Z,41.56
2022-12-06T15:43:31.652Z,41.61
2022-12-06T15:46:24.015Z,41.95
2022-12-06T15:49:17.272Z,41.81
2022-12-06T15:52:06.395Z,42.42
2022-12-06T15:54:55.109Z,42.99
2022-12-06T15:57:43.700Z,42.71
2022-12-06T16:00:32.518Z,42.73
2022-12-06T16:03:21.307Z,42.90
2022-12-06T16:06:14.588Z,42.88
2022-12-06T16:09:03.295Z,42.94
2022-12-06T16:11:51.884Z,44.09
2022-12-06T16:14:40.727Z,45.05
2022-12-06T16:17:29.291Z,45.17
2022-12-06T16:20:36.405Z,45.45
2022-12-06T16:26:54.519Z,45.89
2022-12-06T16:29:43.201Z,45.65
2022-12-06T16:32:33.140Z,45.69
2022-12-06T16:35:21.708Z,45.82
2022-12-06T16:38:14.764Z,45.94
2022-12-06T16:41:08.891Z,46.51
2022-12-06T16:43:57.716Z,46.41
2022-12-06T16:46:46.879Z,46.95
2022-12-06T16:49:50.864Z,46.60
2022-12-06T16:52:39.637Z,46.92
2022-12-06T16:55:28.335Z,46.80
2022-12-06T16:58:18.444Z,46.54
2022-12-06T17:01:20.535Z,46.72
2022-12-06T17:04:11.038Z,46.65
2022-12-06T17:06:59.645Z,45.81
2022-12-06T17:09:51.119Z,45.48
2022-12-06T17:12:39.790Z,44.35
2022-12-06T17:15:29.810Z,44.76
2022-12-06T17:18:18.535Z,44.56
2022-12-06T17:21:08.115Z,44.95
2022-12-06T17:23:58.589Z,44.85
2022-12-06T17:26:47.542Z,44.95
2022-12-06T17:29:36.513Z,44.72
2022-12-06T17:32:26.494Z,44.77
2022-12-06T17:35:15.366Z,44.79
2022-12-06T17:38:03.888Z,45.20
2022-12-06T17:40:52.911Z,45.90
2022-12-06T17:43:40.439Z,45.79
2022-12-06T17:46:29.664Z,45.87
2022-12-06T17:49:21.240Z,46.00
2022-12-06T17:52:09.919Z,46.01
2022-12-06T17:55:04.548Z,46.01
2022-12-06T17:57:53.582Z,46.21
2022-12-06T18:00:42.209Z,46.79
2022-12-06T18:03:31.181Z,47.00
2022-12-06T18:06:21.915Z,47.06
2022-12-06T18:09:14.620Z,47.27
2022-12-06T18:12:03.264Z,47.36
2022-12-06T18:14:51.855Z,47.40
2022-12-06T18:17:40.610Z,47.64
2022-12-06T18:20:29.156Z,47.50
2022-12-06T18:23:19.606Z,47.56
2022-12-06T18:26:11.572Z,47.90
2022-12-06T18:29:01.408Z,47.80
2022-12-06T18:31:50.657Z,47.73
2022-12-06T18:34:39.965Z,47.71
2022-12-06T18:37:28.552Z,47.89
2022-12-06T18:40:18.757Z,47.57
2022-12-06T18:43:09.761Z,48.37
2022-12-06T18:46:01.909Z,48.16
2022-12-06T18:48:52.577Z,48.28
2022-12-06T18:51:41.344Z,48.15
2022-12-06T18:54:29.980Z,47.73
2022-12-06T18:57:20.396Z,47.96
2022-12-06T19:00:10.189Z,47.63
2022-12-06T19:03:01.539Z,47.71
2022-12-06T19:06:05.190Z,47.91
2022-12-06T19:08:54.986Z,48.16
2022-12-06T19:11:45.698Z,47.94
2022-12-06T19:14:35.857Z,48.18
2022-12-06T19:17:24.462Z,48.08
2022-12-06T19:20:13.726Z,48.11
2022-12-06T19:23:02.523Z,48.34
2022-12-06T19:25:51.094Z,48.47
2022-12-06T19:28:41.639Z,48.39
2022-12-06T19:31:31.586Z,47.99
2022-12-06T19:34:21.434Z,48.39
2022-12-06T19:37:10.168Z,48.31
2022-12-06T19:39:59.031Z,47.94
2022-12-06T19:43:05.271Z,48.28
2022-12-06T19:45:53.958Z,48.07
2022-12-06T19:48:44.106Z,48.05
2022-12-06T19:51:32.881Z,48.05
2022-12-06T19:54:23.196Z,48.57
2022-12-06T19:57:11.908Z,48.24
2022-12-06T20:00:00.779Z,48.21
2022-12-06T20:02:49.700Z,48.29
2022-12-06T20:05:39.657Z,48.49
2022-12-06T20:08:28.337Z,48.57
2022-12-06T20:11:37.090Z,48.60
2022-12-06T20:14:26.178Z,48.55
2022-12-06T20:17:16.824Z,48.52
2022-12-06T20:20:06.558Z,48.73
2022-12-06T20:22:56.520Z,48.47
2022-12-06T20:25:45.184Z,48.64
2022-12-06T20:28:33.787Z,48.36
2022-12-06T20:31:23.994Z,48.83
2022-12-06T20:34:15.486Z,48.78
2022-12-06T20:37:05.740Z,48.81
2022-12-06T20:39:55.730Z,48.79
2022-12-06T20:42:45.806Z,48.79
2022-12-06T20:45:34.436Z,48.93
2022-12-06T20:48:23.022Z,48.26
2022-12-06T20:51:13.488Z,48.73
2022-12-06T20:54:04.710Z,48.59
2022-12-06T20:56:54.729Z,48.88
2022-12-06T20:59:43.315Z,48.79
2022-12-06T21:02:31.965Z,48.66
2022-12-06T21:05:20.639Z,48.73
2022-12-06T21:08:09.602Z,48.98
2022-12-06T21:14:09.044Z,48.93
2022-12-06T21:16:57.590Z,48.37
2022-12-06T21:19:46.180Z,48.77
2022-12-06T21:22:34.732Z,48.56
2022-12-06T21:25:23.361Z,48.87
2022-12-06T21:28:12.003Z,48.54
2022-12-06T21:31:02.068Z,48.61
2022-12-06T21:33:50.723Z,48.49
2022-12-06T21:36:39.296Z,48.46
2022-12-06T21:39:27.972Z,48.62
2022-12-06T21:42:17.450Z,48.51
2022-12-06T21:45:06.702Z,48.86
2022-12-06T21:47:56.620Z,48.88
2022-12-06T21:50:45.263Z,49.17
2022-12-06T21:53:34.089Z,48.50
2022-12-06T21:56:23.531Z,48.63
2022-12-06T21:59:12.184Z,48.94
2022-12-06T22:02:00.760Z,48.96
2022-12-06T22:04:50.814Z,48.93
2022-12-06T22:07:39.501Z,48.87
2022-12-06T22:10:28.418Z,48.76
2022-12-06T22:13:16.956Z,48.62
2022-12-06T22:16:08.244Z,48.78
2022-12-06T22:18:56.933Z,48.99
2022-12-06T22:21:47.697Z,48.92
2022-12-06T22:24:36.586Z,48.88
2022-12-06T22:27:25.234Z,48.94
2022-12-06T22:30:14.387Z,48.75
2022-12-06T22:33:03.083Z,49.08
2022-12-06T22:35:51.725Z,48.62
2022-12-06T22:38:41.780Z,49.04
2022-12-06T22:41:31.002Z,49.12
2022-12-06T22:44:19.653Z,48.76
2022-12-06T22:47:08.497Z,49.05
2022-12-06T22:49:57.122Z,48.85
2022-12-06T22:52:45.680Z,49.08
2022-12-06T22:55:35.809Z,48.52
2022-12-06T22:58:24.445Z,47.30
2022-12-06T23:01:16.507Z,46.96
2022-12-06T23:04:07.561Z,46.90
2022-12-06T23:06:56.218Z,46.80
2022-12-06T23:09:44.977Z,46.59
2022-12-06T23:12:37.254Z,46.46
2022-12-06T23:15:25.993Z,47.03
2022-12-06T23:18:14.612Z,47.78
2022-12-06T23:21:05.764Z,47.72
2022-12-06T23:23:55.456Z,48.12
2022-12-06T23:26:45.505Z,48.10
2022-12-06T23:29:35.547Z,48.40
2022-12-06T23:32:24.211Z,48.25
2022-12-06T23:35:12.941Z,48.47
2022-12-06T23:38:01.703Z,48.74
2022-12-06T23:40:50.684Z,48.55
2022-12-06T23:43:39.717Z,49.07
2022-12-06T23:46:31.338Z,48.92
2022-12-06T23:49:21.403Z,49.11
2022-12-06T23:52:10.047Z,48.84
2022-12-06T23:54:59.545Z,49.26
2022-12-06T23:57:48.164Z,49.01
